SIT weather

Sitka Rocky Gutierrez Airport
Sitka, Alaska, United States

Public forecast

Using degrees Fahrenheit for public forecast. Weather courtesy of forecast.io.

METAR (pilot weather report)

Retrieved 2019/09/22 18:53 UTC (22 minutes ago):

PASI 221853Z 19005KT 6SM -RA SCT014 BKN025 OVC050 11/08 A2979

TAF (pilot weather forecast)

Retrieved 2019/09/22 18:22 UTC (53 minutes ago):

TAF PASI 221720Z 2218/2318 15009KT P6SM -SHRA SCT025 OVC040 TEMPO 2218/2220 5SM -SHRA BR BKN025 OVC040 FM222000 15007KT P6SM VCSH SCT025 OVC050 FM230800 13011G18KT 6SM -RA SCT025 OVC050 FM231200 12020G30KT 4SM -RA BKN025 OVC040 WS020/16045KT